sensor_id;sensor_type;location;lat;lon;timestamp;P1;durP1;ratioP1;P2;durP2;ratioP2
15958;SDS011;8078;47.822;9.402;2023-05-07T00:01:14;7.85;;;5.68;;
15958;SDS011;8078;47.822;9.402;2023-05-07T00:03:39;6.28;;;5.63;;
15958;SDS011;8078;47.822;9.402;2023-05-07T00:06:05;5.80;;;5.03;;
15958;SDS011;8078;47.822;9.402;2023-05-07T00:08:31;6.68;;;5.95;;
15958;SDS011;8078;47.822;9.402;2023-05-07T00:10:56;5.75;;;5.07;;
15958;SDS011;8078;47.822;9.402;2023-05-07T00:13:22;7.50;;;4.95;;
15958;SDS011;8078;47.822;9.402;2023-05-07T00:15:47;5.30;;;4.55;;
15958;SDS011;8078;47.822;9.402;2023-05-07T00:18:13;6.78;;;6.07;;
15958;SDS011;8078;47.822;9.402;2023-05-07T00:20:38;8.35;;;5.30;;
15958;SDS011;8078;47.822;9.402;2023-05-07T00:23:04;5.78;;;5.18;;
15958;SDS011;8078;47.822;9.402;2023-05-07T00:25:29;5.25;;;4.75;;
15958;SDS011;8078;47.822;9.402;2023-05-07T00:27:55;6.10;;;5.50;;
15958;SDS011;8078;47.822;9.402;2023-05-07T00:30:20;6.40;;;5.80;;
15958;SDS011;8078;47.822;9.402;2023-05-07T00:32:46;7.80;;;5.88;;
15958;SDS011;8078;47.822;9.402;2023-05-07T00:35:13;8.15;;;5.60;;
15958;SDS011;8078;47.822;9.402;2023-05-07T00:37:39;9.15;;;5.88;;
15958;SDS011;8078;47.822;9.402;2023-05-07T00:40:05;6.10;;;5.50;;
15958;SDS011;8078;47.822;9.402;2023-05-07T00:42:32;7.32;;;6.10;;
15958;SDS011;8078;47.822;9.402;2023-05-07T00:44:58;8.70;;;6.60;;
15958;SDS011;8078;47.822;9.402;2023-05-07T00:47:24;8.45;;;6.63;;
15958;SDS011;8078;47.822;9.402;2023-05-07T00:49:54;8.73;;;6.85;;
15958;SDS011;8078;47.822;9.402;2023-05-07T00:52:21;9.30;;;6.72;;
15958;SDS011;8078;47.822;9.402;2023-05-07T00:54:50;7.35;;;6.65;;
15958;SDS011;8078;47.822;9.402;2023-05-07T00:57:16;9.32;;;6.75;;
15958;SDS011;8078;47.822;9.402;2023-05-07T00:59:42;12.23;;;7.00;;
15958;SDS011;8078;47.822;9.402;2023-05-07T01:02:08;9.10;;;6.55;;
15958;SDS011;8078;47.822;9.402;2023-05-07T01:04:33;9.00;;;5.88;;
15958;SDS011;8078;47.822;9.402;2023-05-07T01:07:00;6.18;;;5.57;;
15958;SDS011;8078;47.822;9.402;2023-05-07T01:09:27;7.05;;;5.60;;
15958;SDS011;8078;47.822;9.402;2023-05-07T01:11:53;6.22;;;5.00;;
15958;SDS011;8078;47.822;9.402;2023-05-07T01:14:20;5.47;;;4.82;;
15958;SDS011;8078;47.822;9.402;2023-05-07T01:16:46;6.25;;;4.53;;
15958;SDS011;8078;47.822;9.402;2023-05-07T01:19:12;4.75;;;4.18;;
15958;SDS011;8078;47.822;9.402;2023-05-07T01:21:43;6.28;;;4.32;;
15958;SDS011;8078;47.822;9.402;2023-05-07T01:24:12;7.97;;;3.88;;
15958;SDS011;8078;47.822;9.402;2023-05-07T01:26:38;4.88;;;3.85;;
15958;SDS011;8078;47.822;9.402;2023-05-07T01:29:04;4.40;;;4.00;;
15958;SDS011;8078;47.822;9.402;2023-05-07T01:31:30;4.85;;;3.90;;
15958;SDS011;8078;47.822;9.402;2023-05-07T01:33:57;5.47;;;4.00;;
15958;SDS011;8078;47.822;9.402;2023-05-07T01:36:25;4.30;;;3.90;;
15958;SDS011;8078;47.822;9.402;2023-05-07T01:38:54;4.32;;;3.58;;
15958;SDS011;8078;47.822;9.402;2023-05-07T01:41:19;4.63;;;3.47;;
15958;SDS011;8078;47.822;9.402;2023-05-07T01:43:46;3.78;;;3.38;;
15958;SDS011;8078;47.822;9.402;2023-05-07T01:46:12;6.22;;;3.80;;
15958;SDS011;8078;47.822;9.402;2023-05-07T01:48:39;6.53;;;3.45;;
15958;SDS011;8078;47.822;9.402;2023-05-07T01:51:06;4.30;;;3.33;;
15958;SDS011;8078;47.822;9.402;2023-05-07T01:53:36;5.93;;;3.20;;
15958;SDS011;8078;47.822;9.402;2023-05-07T01:56:02;4.53;;;2.92;;
15958;SDS011;8078;47.822;9.402;2023-05-07T01:58:28;7.35;;;3.20;;
15958;SDS011;8078;47.822;9.402;2023-05-07T02:00:54;4.80;;;3.33;;
15958;SDS011;8078;47.822;9.402;2023-05-07T02:03:19;3.28;;;2.97;;
15958;SDS011;8078;47.822;9.402;2023-05-07T02:05:45;3.50;;;3.20;;
15958;SDS011;8078;47.822;9.402;2023-05-07T02:08:10;3.20;;;2.90;;
15958;SDS011;8078;47.822;9.402;2023-05-07T02:10:36;4.32;;;3.00;;
15958;SDS011;8078;47.822;9.402;2023-05-07T02:13:01;3.50;;;2.90;;
15958;SDS011;8078;47.822;9.402;2023-05-07T02:15:27;5.82;;;2.97;;
15958;SDS011;8078;47.822;9.402;2023-05-07T02:18:00;3.10;;;2.88;;
15958;SDS011;8078;47.822;9.402;2023-05-07T02:20:29;3.95;;;3.50;;
15958;SDS011;8078;47.822;9.402;2023-05-07T02:22:55;6.82;;;3.00;;
15958;SDS011;8078;47.822;9.402;2023-05-07T02:25:21;4.28;;;2.90;;
15958;SDS011;8078;47.822;9.402;2023-05-07T02:27:46;3.33;;;3.03;;
15958;SDS011;8078;47.822;9.402;2023-05-07T02:30:12;4.68;;;3.00;;
15958;SDS011;8078;47.822;9.402;2023-05-07T02:32:38;4.78;;;2.92;;
15958;SDS011;8078;47.822;9.402;2023-05-07T02:35:04;3.00;;;2.70;;
15958;SDS011;8078;47.822;9.402;2023-05-07T02:37:30;4.13;;;3.33;;
15958;SDS011;8078;47.822;9.402;2023-05-07T02:39:55;3.83;;;2.90;;
15958;SDS011;8078;47.822;9.402;2023-05-07T02:42:21;3.15;;;2.80;;
15958;SDS011;8078;47.822;9.402;2023-05-07T02:44:46;4.70;;;3.13;;
15958;SDS011;8078;47.822;9.402;2023-05-07T02:47:13;5.22;;;3.28;;
15958;SDS011;8078;47.822;9.402;2023-05-07T02:49:40;3.45;;;3.08;;
15958;SDS011;8078;47.822;9.402;2023-05-07T02:52:06;4.22;;;2.92;;
15958;SDS011;8078;47.822;9.402;2023-05-07T02:54:32;3.22;;;2.92;;
15958;SDS011;8078;47.822;9.402;2023-05-07T02:56:57;3.80;;;3.00;;
15958;SDS011;8078;47.822;9.402;2023-05-07T02:59:23;3.10;;;2.70;;
15958;SDS011;8078;47.822;9.402;2023-05-07T03:01:50;4.82;;;2.83;;
15958;SDS011;8078;47.822;9.402;2023-05-07T03:04:15;2.67;;;2.47;;
15958;SDS011;8078;47.822;9.402;2023-05-07T03:06:41;2.85;;;2.55;;
15958;SDS011;8078;47.822;9.402;2023-05-07T03:09:07;5.32;;;2.55;;
15958;SDS011;8078;47.822;9.402;2023-05-07T03:11:32;4.45;;;2.22;;
15958;SDS011;8078;47.822;9.402;2023-05-07T03:13:58;2.78;;;2.45;;
15958;SDS011;8078;47.822;9.402;2023-05-07T03:16:23;3.58;;;2.65;;
15958;SDS011;8078;47.822;9.402;2023-05-07T03:18:49;3.10;;;2.80;;
15958;SDS011;8078;47.822;9.402;2023-05-07T03:21:15;4.85;;;2.67;;
15958;SDS011;8078;47.822;9.402;2023-05-07T03:23:40;3.88;;;2.58;;
15958;SDS011;8078;47.822;9.402;2023-05-07T03:26:06;4.47;;;2.55;;
15958;SDS011;8078;47.822;9.402;2023-05-07T03:28:31;3.33;;;2.30;;
15958;SDS011;8078;47.822;9.402;2023-05-07T03:30:57;2.50;;;2.30;;
15958;SDS011;8078;47.822;9.402;2023-05-07T03:33:22;2.78;;;2.30;;
15958;SDS011;8078;47.822;9.402;2023-05-07T03:35:48;3.22;;;2.40;;
15958;SDS011;8078;47.822;9.402;2023-05-07T03:38:14;3.22;;;2.13;;
15958;SDS011;8078;47.822;9.402;2023-05-07T03:40:39;3.22;;;1.98;;
15958;SDS011;8078;47.822;9.402;2023-05-07T03:43:05;3.40;;;1.83;;
15958;SDS011;8078;47.822;9.402;2023-05-07T03:45:30;2.00;;;1.70;;
15958;SDS011;8078;47.822;9.402;2023-05-07T03:47:56;2.65;;;1.73;;
15958;SDS011;8078;47.822;9.402;2023-05-07T03:50:22;2.58;;;2.08;;
15958;SDS011;8078;47.822;9.402;2023-05-07T03:52:47;3.42;;;2.00;;
15958;SDS011;8078;47.822;9.402;2023-05-07T03:55:13;2.50;;;2.28;;
15958;SDS011;8078;47.822;9.402;2023-05-07T03:57:38;2.60;;;2.40;;
15958;SDS011;8078;47.822;9.402;2023-05-07T04:00:04;2.67;;;2.10;;
15958;SDS011;8078;47.822;9.402;2023-05-07T04:02:31;3.38;;;2.10;;
15958;SDS011;8078;47.822;9.402;2023-05-07T04:04:58;5.93;;;2.20;;
15958;SDS011;8078;47.822;9.402;2023-05-07T04:07:23;2.75;;;2.20;;
15958;SDS011;8078;47.822;9.402;2023-05-07T04:09:49;4.20;;;2.60;;
15958;SDS011;8078;47.822;9.402;2023-05-07T04:12:14;2.92;;;2.30;;
15958;SDS011;8078;47.822;9.402;2023-05-07T04:14:40;3.85;;;2.45;;
15958;SDS011;8078;47.822;9.402;2023-05-07T04:17:06;2.65;;;2.30;;
15958;SDS011;8078;47.822;9.402;2023-05-07T04:19:33;3.53;;;2.40;;
15958;SDS011;8078;47.822;9.402;2023-05-07T04:21:58;3.03;;;2.35;;
15958;SDS011;8078;47.822;9.402;2023-05-07T04:24:24;4.05;;;2.30;;
15958;SDS011;8078;47.822;9.402;2023-05-07T04:26:49;3.10;;;2.50;;
15958;SDS011;8078;47.822;9.402;2023-05-07T04:29:16;4.18;;;2.20;;
15958;SDS011;8078;47.822;9.402;2023-05-07T04:31:41;2.95;;;2.22;;
15958;SDS011;8078;47.822;9.402;2023-05-07T04:34:09;4.78;;;2.28;;
15958;SDS011;8078;47.822;9.402;2023-05-07T04:36:36;5.35;;;2.42;;
15958;SDS011;8078;47.822;9.402;2023-05-07T04:39:03;2.50;;;2.30;;
15958;SDS011;8078;47.822;9.402;2023-05-07T04:41:29;2.00;;;1.90;;
15958;SDS011;8078;47.822;9.402;2023-05-07T04:43:55;3.28;;;2.15;;
15958;SDS011;8078;47.822;9.402;2023-05-07T04:46:21;3.20;;;2.38;;
15958;SDS011;8078;47.822;9.402;2023-05-07T04:48:47;2.90;;;1.90;;
15958;SDS011;8078;47.822;9.402;2023-05-07T04:51:12;3.72;;;2.10;;
15958;SDS011;8078;47.822;9.402;2023-05-07T04:53:38;2.53;;;1.98;;
15958;SDS011;8078;47.822;9.402;2023-05-07T04:56:03;2.22;;;2.03;;
15958;SDS011;8078;47.822;9.402;2023-05-07T04:58:29;2.60;;;2.10;;
15958;SDS011;8078;47.822;9.402;2023-05-07T05:00:56;1.95;;;1.70;;
15958;SDS011;8078;47.822;9.402;2023-05-07T05:03:23;1.90;;;1.70;;
15958;SDS011;8078;47.822;9.402;2023-05-07T05:05:49;3.85;;;2.00;;
15958;SDS011;8078;47.822;9.402;2023-05-07T05:08:14;2.47;;;1.88;;
15958;SDS011;8078;47.822;9.402;2023-05-07T05:10:40;3.25;;;2.03;;
15958;SDS011;8078;47.822;9.402;2023-05-07T05:13:07;3.22;;;2.00;;
15958;SDS011;8078;47.822;9.402;2023-05-07T05:15:33;2.00;;;1.80;;
15958;SDS011;8078;47.822;9.402;2023-05-07T05:17:58;2.83;;;1.90;;
15958;SDS011;8078;47.822;9.402;2023-05-07T05:20:24;3.28;;;1.90;;
15958;SDS011;8078;47.822;9.402;2023-05-07T05:22:49;1.75;;;1.50;;
15958;SDS011;8078;47.822;9.402;2023-05-07T05:25:15;1.85;;;1.75;;
15958;SDS011;8078;47.822;9.402;2023-05-07T05:27:41;1.75;;;1.60;;
15958;SDS011;8078;47.822;9.402;2023-05-07T05:30:06;3.28;;;1.75;;
15958;SDS011;8078;47.822;9.402;2023-05-07T05:32:32;3.13;;;1.75;;
15958;SDS011;8078;47.822;9.402;2023-05-07T05:34:58;2.00;;;1.80;;
15958;SDS011;8078;47.822;9.402;2023-05-07T05:37:23;4.03;;;1.85;;
15958;SDS011;8078;47.822;9.402;2023-05-07T05:39:49;3.33;;;2.20;;
15958;SDS011;8078;47.822;9.402;2023-05-07T05:42:15;2.78;;;2.10;;
15958;SDS011;8078;47.822;9.402;2023-05-07T05:44:40;4.20;;;2.30;;
15958;SDS011;8078;47.822;9.402;2023-05-07T05:47:06;2.97;;;2.17;;
15958;SDS011;8078;47.822;9.402;2023-05-07T05:49:32;3.72;;;2.25;;
15958;SDS011;8078;47.822;9.402;2023-05-07T05:51:57;3.45;;;2.33;;
15958;SDS011;8078;47.822;9.402;2023-05-07T05:54:23;4.32;;;2.45;;
15958;SDS011;8078;47.822;9.402;2023-05-07T05:56:48;4.55;;;2.50;;
15958;SDS011;8078;47.822;9.402;2023-05-07T05:59:14;2.92;;;2.33;;
15958;SDS011;8078;47.822;9.402;2023-05-07T06:01:39;3.05;;;2.47;;
15958;SDS011;8078;47.822;9.402;2023-05-07T06:04:05;3.03;;;2.70;;
15958;SDS011;8078;47.822;9.402;2023-05-07T06:06:31;4.15;;;2.30;;
15958;SDS011;8078;47.822;9.402;2023-05-07T06:08:57;3.95;;;2.50;;
15958;SDS011;8078;47.822;9.402;2023-05-07T06:11:22;3.08;;;2.42;;
15958;SDS011;8078;47.822;9.402;2023-05-07T06:13:48;2.75;;;2.00;;
15958;SDS011;8078;47.822;9.402;2023-05-07T06:16:14;2.40;;;2.20;;
15958;SDS011;8078;47.822;9.402;2023-05-07T06:18:40;2.88;;;1.80;;
15958;SDS011;8078;47.822;9.402;2023-05-07T06:21:05;2.00;;;1.90;;
15958;SDS011;8078;47.822;9.402;2023-05-07T06:23:31;3.33;;;2.20;;
15958;SDS011;8078;47.822;9.402;2023-05-07T06:25:56;2.25;;;2.05;;
15958;SDS011;8078;47.822;9.402;2023-05-07T06:28:25;2.92;;;1.85;;
15958;SDS011;8078;47.822;9.402;2023-05-07T06:30:51;2.55;;;1.80;;
15958;SDS011;8078;47.822;9.402;2023-05-07T06:33:16;2.28;;;1.88;;
15958;SDS011;8078;47.822;9.402;2023-05-07T06:35:42;2.33;;;1.98;;
15958;SDS011;8078;47.822;9.402;2023-05-07T06:38:07;4.30;;;2.15;;
15958;SDS011;8078;47.822;9.402;2023-05-07T06:40:33;5.20;;;2.30;;
15958;SDS011;8078;47.822;9.402;2023-05-07T06:42:58;3.13;;;2.10;;
15958;SDS011;8078;47.822;9.402;2023-05-07T06:45:24;3.05;;;2.10;;
15958;SDS011;8078;47.822;9.402;2023-05-07T06:47:50;2.60;;;2.20;;
15958;SDS011;8078;47.822;9.402;2023-05-07T06:50:15;3.38;;;2.30;;
15958;SDS011;8078;47.822;9.402;2023-05-07T06:52:42;3.10;;;2.17;;
15958;SDS011;8078;47.822;9.402;2023-05-07T06:55:08;2.88;;;2.13;;
15958;SDS011;8078;47.822;9.402;2023-05-07T06:57:34;3.03;;;2.00;;
15958;SDS011;8078;47.822;9.402;2023-05-07T06:59:59;3.30;;;2.28;;
15958;SDS011;8078;47.822;9.402;2023-05-07T07:02:25;6.22;;;2.47;;
15958;SDS011;8078;47.822;9.402;2023-05-07T07:04:50;4.28;;;2.65;;
15958;SDS011;8078;47.822;9.402;2023-05-07T07:07:16;3.47;;;2.38;;
15958;SDS011;8078;47.822;9.402;2023-05-07T07:09:42;3.13;;;2.15;;
15958;SDS011;8078;47.822;9.402;2023-05-07T07:12:07;3.40;;;2.70;;
15958;SDS011;8078;47.822;9.402;2023-05-07T07:14:33;2.58;;;2.10;;
15958;SDS011;8078;47.822;9.402;2023-05-07T07:16:58;4.53;;;2.70;;
15958;SDS011;8078;47.822;9.402;2023-05-07T07:19:25;2.15;;;1.95;;
15958;SDS011;8078;47.822;9.402;2023-05-07T07:21:51;2.63;;;2.22;;
15958;SDS011;8078;47.822;9.402;2023-05-07T07:24:16;3.53;;;2.30;;
15958;SDS011;8078;47.822;9.402;2023-05-07T07:26:45;4.28;;;2.25;;
15958;SDS011;8078;47.822;9.402;2023-05-07T07:29:11;3.55;;;2.30;;
15958;SDS011;8078;47.822;9.402;2023-05-07T07:31:37;2.40;;;2.20;;
15958;SDS011;8078;47.822;9.402;2023-05-07T07:34:02;2.70;;;2.45;;
15958;SDS011;8078;47.822;9.402;2023-05-07T07:36:28;3.00;;;2.60;;
15958;SDS011;8078;47.822;9.402;2023-05-07T07:38:53;3.95;;;2.90;;
15958;SDS011;8078;47.822;9.402;2023-05-07T07:41:19;4.30;;;3.15;;
15958;SDS011;8078;47.822;9.402;2023-05-07T07:43:45;3.55;;;3.10;;
15958;SDS011;8078;47.822;9.402;2023-05-07T07:46:11;4.05;;;2.97;;
15958;SDS011;8078;47.822;9.402;2023-05-07T07:48:37;3.75;;;2.80;;
15958;SDS011;8078;47.822;9.402;2023-05-07T07:51:03;3.35;;;3.05;;
15958;SDS011;8078;47.822;9.402;2023-05-07T07:53:28;6.10;;;2.72;;
15958;SDS011;8078;47.822;9.402;2023-05-07T07:55:54;3.72;;;2.90;;
15958;SDS011;8078;47.822;9.402;2023-05-07T07:58:20;4.25;;;3.00;;
15958;SDS011;8078;47.822;9.402;2023-05-07T08:00:47;3.28;;;2.65;;
15958;SDS011;8078;47.822;9.402;2023-05-07T08:03:12;3.75;;;3.33;;
15958;SDS011;8078;47.822;9.402;2023-05-07T08:05:39;2.88;;;2.65;;
15958;SDS011;8078;47.822;9.402;2023-05-07T08:08:05;4.55;;;2.80;;
15958;SDS011;8078;47.822;9.402;2023-05-07T08:10:31;3.40;;;2.95;;
15958;SDS011;8078;47.822;9.402;2023-05-07T08:12:59;4.57;;;3.15;;
15958;SDS011;8078;47.822;9.402;2023-05-07T08:15:25;3.78;;;2.88;;
15958;SDS011;8078;47.822;9.402;2023-05-07T08:17:51;2.63;;;2.42;;
15958;SDS011;8078;47.822;9.402;2023-05-07T08:20:16;4.82;;;2.80;;
15958;SDS011;8078;47.822;9.402;2023-05-07T08:22:42;3.03;;;2.55;;
15958;SDS011;8078;47.822;9.402;2023-05-07T08:25:07;4.30;;;2.55;;
15958;SDS011;8078;47.822;9.402;2023-05-07T08:27:33;3.22;;;2.75;;
15958;SDS011;8078;47.822;9.402;2023-05-07T08:29:59;3.10;;;2.80;;
15958;SDS011;8078;47.822;9.402;2023-05-07T08:32:24;4.68;;;2.97;;
15958;SDS011;8078;47.822;9.402;2023-05-07T08:34:50;2.90;;;2.70;;
15958;SDS011;8078;47.822;9.402;2023-05-07T08:37:16;3.42;;;3.13;;
15958;SDS011;8078;47.822;9.402;2023-05-07T08:39:41;5.32;;;3.88;;
15958;SDS011;8078;47.822;9.402;2023-05-07T08:42:07;5.90;;;3.63;;
15958;SDS011;8078;47.822;9.402;2023-05-07T08:44:36;4.82;;;4.00;;
15958;SDS011;8078;47.822;9.402;2023-05-07T08:47:05;8.10;;;4.10;;
15958;SDS011;8078;47.822;9.402;2023-05-07T08:49:32;7.60;;;3.65;;
15958;SDS011;8078;47.822;9.402;2023-05-07T08:51:58;7.40;;;4.07;;
15958;SDS011;8078;47.822;9.402;2023-05-07T08:54:24;4.20;;;3.30;;
15958;SDS011;8078;47.822;9.402;2023-05-07T08:56:50;5.70;;;4.13;;
15958;SDS011;8078;47.822;9.402;2023-05-07T08:59:16;7.38;;;3.72;;
15958;SDS011;8078;47.822;9.402;2023-05-07T09:01:42;6.50;;;3.72;;
15958;SDS011;8078;47.822;9.402;2023-05-07T09:04:08;3.88;;;3.58;;
15958;SDS011;8078;47.822;9.402;2023-05-07T09:06:34;7.13;;;3.80;;
15958;SDS011;8078;47.822;9.402;2023-05-07T09:09:00;3.85;;;3.45;;
15958;SDS011;8078;47.822;9.402;2023-05-07T09:11:26;5.72;;;3.70;;
15958;SDS011;8078;47.822;9.402;2023-05-07T09:13:53;4.10;;;3.75;;
15958;SDS011;8078;47.822;9.402;2023-05-07T09:16:20;4.20;;;3.42;;
15958;SDS011;8078;47.822;9.402;2023-05-07T09:18:49;5.63;;;4.18;;
15958;SDS011;8078;47.822;9.402;2023-05-07T09:21:17;7.95;;;3.63;;
15958;SDS011;8078;47.822;9.402;2023-05-07T09:23:43;4.90;;;3.75;;
15958;SDS011;8078;47.822;9.402;2023-05-07T09:26:09;4.53;;;4.13;;
15958;SDS011;8078;47.822;9.402;2023-05-07T09:28:40;4.78;;;4.28;;
15958;SDS011;8078;47.822;9.402;2023-05-07T09:31:06;6.50;;;4.45;;
15958;SDS011;8078;47.822;9.402;2023-05-07T09:33:32;7.90;;;4.57;;
15958;SDS011;8078;47.822;9.402;2023-05-07T09:35:58;7.05;;;4.70;;
15958;SDS011;8078;47.822;9.402;2023-05-07T09:38:27;7.18;;;4.47;;
15958;SDS011;8078;47.822;9.402;2023-05-07T09:41:09;5.00;;;4.50;;
15958;SDS011;8078;47.822;9.402;2023-05-07T09:43:37;4.40;;;4.00;;
15958;SDS011;8078;47.822;9.402;2023-05-07T09:46:07;5.25;;;4.75;;
15958;SDS011;8078;47.822;9.402;2023-05-07T09:48:37;6.40;;;5.20;;
15958;SDS011;8078;47.822;9.402;2023-05-07T09:51:28;5.75;;;4.60;;
15958;SDS011;8078;47.822;9.402;2023-05-07T09:53:56;5.18;;;4.70;;
15958;SDS011;8078;47.822;9.402;2023-05-07T09:56:24;7.75;;;5.38;;
15958;SDS011;8078;47.822;9.402;2023-05-07T09:58:51;5.85;;;4.50;;
15958;SDS011;8078;47.822;9.402;2023-05-07T10:01:19;7.97;;;5.78;;
15958;SDS011;8078;47.822;9.402;2023-05-07T10:03:47;10.18;;;5.57;;
15958;SDS011;8078;47.822;9.402;2023-05-07T10:06:14;7.60;;;5.28;;
15958;SDS011;8078;47.822;9.402;2023-05-07T10:08:42;6.43;;;5.07;;
15958;SDS011;8078;47.822;9.402;2023-05-07T10:11:08;6.18;;;5.50;;
15958;SDS011;8078;47.822;9.402;2023-05-07T10:13:34;5.65;;;5.15;;
15958;SDS011;8078;47.822;9.402;2023-05-07T10:16:02;5.97;;;5.20;;
15958;SDS011;8078;47.822;9.402;2023-05-07T10:18:30;5.15;;;4.65;;
15958;SDS011;8078;47.822;9.402;2023-05-07T10:21:00;6.85;;;4.47;;
15958;SDS011;8078;47.822;9.402;2023-05-07T10:23:38;3.85;;;3.47;;
15958;SDS011;8078;47.822;9.402;2023-05-07T10:26:06;4.10;;;3.70;;
15958;SDS011;8078;47.822;9.402;2023-05-07T10:28:34;3.50;;;2.80;;
15958;SDS011;8078;47.822;9.402;2023-05-07T10:31:15;3.75;;;3.40;;
15958;SDS011;8078;47.822;9.402;2023-05-07T10:33:59;6.30;;;4.30;;
15958;SDS011;8078;47.822;9.402;2023-05-07T10:36:26;5.63;;;4.10;;
15958;SDS011;8078;47.822;9.402;2023-05-07T10:38:52;4.63;;;3.95;;
15958;SDS011;8078;47.822;9.402;2023-05-07T10:41:18;5.95;;;3.80;;
15958;SDS011;8078;47.822;9.402;2023-05-07T10:43:46;4.03;;;3.13;;
15958;SDS011;8078;47.822;9.402;2023-05-07T10:46:14;5.45;;;4.18;;
15958;SDS011;8078;47.822;9.402;2023-05-07T10:51:29;5.50;;;2.90;;
15958;SDS011;8078;47.822;9.402;2023-05-07T10:56:37;3.92;;;2.90;;
15958;SDS011;8078;47.822;9.402;2023-05-07T11:01:56;2.47;;;2.17;;
15958;SDS011;8078;47.822;9.402;2023-05-07T11:04:24;4.40;;;3.00;;
15958;SDS011;8078;47.822;9.402;2023-05-07T11:18:00;4.18;;;3.40;;
15958;SDS011;8078;47.822;9.402;2023-05-07T11:23:54;4.15;;;3.50;;
15958;SDS011;8078;47.822;9.402;2023-05-07T11:26:09;4.75;;;3.00;;
15958;SDS011;8078;47.822;9.402;2023-05-07T11:28:36;3.88;;;3.10;;
15958;SDS011;8078;47.822;9.402;2023-05-07T11:31:10;3.17;;;2.80;;
15958;SDS011;8078;47.822;9.402;2023-05-07T11:33:37;4.32;;;2.85;;
15958;SDS011;8078;47.822;9.402;2023-05-07T11:36:03;3.20;;;2.50;;
15958;SDS011;8078;47.822;9.402;2023-05-07T11:38:30;2.58;;;2.38;;
15958;SDS011;8078;47.822;9.402;2023-05-07T11:40:56;3.45;;;2.67;;
15958;SDS011;8078;47.822;9.402;2023-05-07T11:43:25;3.20;;;2.75;;
15958;SDS011;8078;47.822;9.402;2023-05-07T11:45:51;3.33;;;2.72;;
15958;SDS011;8078;47.822;9.402;2023-05-07T11:48:17;6.43;;;2.50;;
15958;SDS011;8078;47.822;9.402;2023-05-07T11:50:53;2.45;;;2.10;;
15958;SDS011;8078;47.822;9.402;2023-05-07T11:53:35;2.63;;;2.42;;
15958;SDS011;8078;47.822;9.402;2023-05-07T11:56:12;4.57;;;2.78;;
15958;SDS011;8078;47.822;9.402;2023-05-07T11:58:39;2.55;;;2.00;;
15958;SDS011;8078;47.822;9.402;2023-05-07T12:01:07;1.77;;;1.60;;
15958;SDS011;8078;47.822;9.402;2023-05-07T12:03:34;1.83;;;1.70;;
15958;SDS011;8078;47.822;9.402;2023-05-07T12:06:01;3.95;;;1.83;;
15958;SDS011;8078;47.822;9.402;2023-05-07T12:08:27;4.30;;;2.15;;
15958;SDS011;8078;47.822;9.402;2023-05-07T12:10:54;2.75;;;2.55;;
15958;SDS011;8078;47.822;9.402;2023-05-07T12:13:21;2.47;;;2.05;;
15958;SDS011;8078;47.822;9.402;2023-05-07T12:15:50;5.13;;;2.10;;
15958;SDS011;8078;47.822;9.402;2023-05-07T12:18:20;2.95;;;2.05;;
15958;SDS011;8078;47.822;9.402;2023-05-07T12:20:48;2.65;;;2.28;;
15958;SDS011;8078;47.822;9.402;2023-05-07T12:23:15;2.80;;;2.33;;
15958;SDS011;8078;47.822;9.402;2023-05-07T12:25:42;2.80;;;2.42;;
15958;SDS011;8078;47.822;9.402;2023-05-07T12:28:15;2.63;;;2.20;;
15958;SDS011;8078;47.822;9.402;2023-05-07T12:30:42;3.40;;;2.15;;
15958;SDS011;8078;47.822;9.402;2023-05-07T12:33:09;2.40;;;2.20;;
15958;SDS011;8078;47.822;9.402;2023-05-07T12:35:43;3.78;;;2.80;;
15958;SDS011;8078;47.822;9.402;2023-05-07T12:38:13;5.20;;;3.25;;
15958;SDS011;8078;47.822;9.402;2023-05-07T12:40:41;3.80;;;2.95;;
15958;SDS011;8078;47.822;9.402;2023-05-07T12:43:23;3.63;;;2.78;;
15958;SDS011;8078;47.822;9.402;2023-05-07T12:45:50;3.35;;;2.70;;
15958;SDS011;8078;47.822;9.402;2023-05-07T12:48:19;3.00;;;2.70;;
15958;SDS011;8078;47.822;9.402;2023-05-07T12:50:45;4.05;;;2.85;;
15958;SDS011;8078;47.822;9.402;2023-05-07T12:53:21;4.53;;;2.70;;
15958;SDS011;8078;47.822;9.402;2023-05-07T12:55:49;3.53;;;2.60;;
15958;SDS011;8078;47.822;9.402;2023-05-07T13:00:49;5.03;;;2.97;;
15958;SDS011;8078;47.822;9.402;2023-05-07T13:03:26;3.20;;;2.90;;
15958;SDS011;8078;47.822;9.402;2023-05-07T13:06:01;4.43;;;3.00;;
15958;SDS011;8078;47.822;9.402;2023-05-07T13:11:06;3.63;;;2.63;;
15958;SDS011;8078;47.822;9.402;2023-05-07T13:13:33;4.30;;;3.03;;
15958;SDS011;8078;47.822;9.402;2023-05-07T13:16:00;4.53;;;2.83;;
15958;SDS011;8078;47.822;9.402;2023-05-07T13:18:26;3.63;;;3.10;;
15958;SDS011;8078;47.822;9.402;2023-05-07T13:20:54;4.88;;;2.80;;
15958;SDS011;8078;47.822;9.402;2023-05-07T13:23:19;4.65;;;3.08;;
15958;SDS011;8078;47.822;9.402;2023-05-07T13:25:45;3.35;;;3.05;;
15958;SDS011;8078;47.822;9.402;2023-05-07T13:28:11;4.18;;;2.40;;
15958;SDS011;8078;47.822;9.402;2023-05-07T13:30:37;3.58;;;2.70;;
15958;SDS011;8078;47.822;9.402;2023-05-07T13:33:03;2.92;;;2.28;;
15958;SDS011;8078;47.822;9.402;2023-05-07T13:35:28;2.65;;;2.45;;
15958;SDS011;8078;47.822;9.402;2023-05-07T13:37:54;4.93;;;2.53;;
15958;SDS011;8078;47.822;9.402;2023-05-07T13:40:20;4.95;;;2.70;;
15958;SDS011;8078;47.822;9.402;2023-05-07T13:42:47;4.63;;;2.90;;
15958;SDS011;8078;47.822;9.402;2023-05-07T13:45:13;3.25;;;2.70;;
15958;SDS011;8078;47.822;9.402;2023-05-07T13:47:39;4.00;;;2.88;;
15958;SDS011;8078;47.822;9.402;2023-05-07T13:50:06;4.15;;;3.13;;
15958;SDS011;8078;47.822;9.402;2023-05-07T13:52:36;6.15;;;2.90;;
15958;SDS011;8078;47.822;9.402;2023-05-07T13:55:02;3.35;;;2.90;;
15958;SDS011;8078;47.822;9.402;2023-05-07T13:57:28;5.03;;;3.30;;
15958;SDS011;8078;47.822;9.402;2023-05-07T13:59:54;6.28;;;3.28;;
15958;SDS011;8078;47.822;9.402;2023-05-07T14:02:20;3.30;;;2.83;;
15958;SDS011;8078;47.822;9.402;2023-05-07T14:04:45;3.70;;;3.00;;
15958;SDS011;8078;47.822;9.402;2023-05-07T14:07:11;3.05;;;2.60;;
15958;SDS011;8078;47.822;9.402;2023-05-07T14:09:37;3.58;;;2.80;;
15958;SDS011;8078;47.822;9.402;2023-05-07T14:12:02;3.67;;;2.65;;
15958;SDS011;8078;47.822;9.402;2023-05-07T14:14:28;3.00;;;2.40;;
15958;SDS011;8078;47.822;9.402;2023-05-07T14:16:54;3.00;;;2.58;;
15958;SDS011;8078;47.822;9.402;2023-05-07T14:19:19;3.97;;;2.55;;
15958;SDS011;8078;47.822;9.402;2023-05-07T14:21:45;3.30;;;2.40;;
15958;SDS011;8078;47.822;9.402;2023-05-07T14:24:10;2.30;;;2.10;;
15958;SDS011;8078;47.822;9.402;2023-05-07T14:26:36;4.55;;;2.13;;
15958;SDS011;8078;47.822;9.402;2023-05-07T14:29:02;5.18;;;2.15;;
15958;SDS011;8078;47.822;9.402;2023-05-07T14:31:28;8.13;;;2.45;;
15958;SDS011;8078;47.822;9.402;2023-05-07T14:33:53;4.40;;;2.47;;
15958;SDS011;8078;47.822;9.402;2023-05-07T14:36:19;3.83;;;2.35;;
15958;SDS011;8078;47.822;9.402;2023-05-07T14:38:46;3.35;;;2.42;;
15958;SDS011;8078;47.822;9.402;2023-05-07T14:41:12;5.50;;;2.28;;
15958;SDS011;8078;47.822;9.402;2023-05-07T14:43:37;2.00;;;1.80;;
15958;SDS011;8078;47.822;9.402;2023-05-07T14:46:03;2.25;;;1.90;;
15958;SDS011;8078;47.822;9.402;2023-05-07T14:48:29;3.15;;;2.08;;
15958;SDS011;8078;47.822;9.402;2023-05-07T14:50:54;2.13;;;1.92;;
15958;SDS011;8078;47.822;9.402;2023-05-07T14:53:21;4.28;;;2.22;;
15958;SDS011;8078;47.822;9.402;2023-05-07T14:55:47;1.70;;;1.60;;
15958;SDS011;8078;47.822;9.402;2023-05-07T14:58:13;3.40;;;1.90;;
15958;SDS011;8078;47.822;9.402;2023-05-07T15:00:38;1.90;;;1.70;;
15958;SDS011;8078;47.822;9.402;2023-05-07T15:03:08;1.60;;;1.45;;
15958;SDS011;8078;47.822;9.402;2023-05-07T15:05:35;3.20;;;1.73;;
15958;SDS011;8078;47.822;9.402;2023-05-07T15:08:01;1.90;;;1.70;;
15958;SDS011;8078;47.822;9.402;2023-05-07T15:10:27;1.80;;;1.70;;
15958;SDS011;8078;47.822;9.402;2023-05-07T15:12:52;2.13;;;1.92;;
15958;SDS011;8078;47.822;9.402;2023-05-07T15:15:18;2.22;;;2.00;;
15958;SDS011;8078;47.822;9.402;2023-05-07T15:17:43;3.92;;;2.40;;
15958;SDS011;8078;47.822;9.402;2023-05-07T15:20:09;3.90;;;2.10;;
15958;SDS011;8078;47.822;9.402;2023-05-07T15:22:35;3.03;;;2.15;;
15958;SDS011;8078;47.822;9.402;2023-05-07T15:25:02;3.08;;;1.90;;